createdAt,value
2022-10-16T00:00:07.442Z,14.78
2022-10-16T00:02:35.521Z,14.75
2022-10-16T00:05:03.504Z,14.72
2022-10-16T00:07:31.494Z,14.72
2022-10-16T00:09:59.095Z,14.71
2022-10-16T00:12:26.906Z,14.69
2022-10-16T00:14:54.885Z,14.67
2022-10-16T00:17:22.651Z,14.65
2022-10-16T00:19:50.660Z,14.65
2022-10-16T00:22:18.266Z,14.61
2022-10-16T00:24:46.260Z,14.58
2022-10-16T00:27:13.865Z,14.57
2022-10-16T00:29:41.691Z,14.56
2022-10-16T00:32:09.613Z,14.55
2022-10-16T00:34:37.164Z,14.53
2022-10-16T00:37:04.791Z,14.51
2022-10-16T00:39:32.406Z,14.49
2022-10-16T00:42:00.154Z,14.47
2022-10-16T00:44:28.154Z,14.48
2022-10-16T00:46:55.755Z,14.48
2022-10-16T00:49:23.342Z,14.49
2022-10-16T00:51:51.041Z,14.48
2022-10-16T00:54:18.809Z,14.48
2022-10-16T00:56:46.784Z,14.49
2022-10-16T00:59:14.428Z,14.54
2022-10-16T01:01:42.007Z,14.58
2022-10-16T01:04:09.534Z,14.60
2022-10-16T01:06:38.762Z,14.60
2022-10-16T01:09:06.757Z,14.56
2022-10-16T01:11:34.349Z,14.53
2022-10-16T01:14:01.977Z,14.50
2022-10-16T01:16:29.589Z,14.47
2022-10-16T01:18:57.203Z,14.45
2022-10-16T01:21:25.178Z,14.43
2022-10-16T01:23:52.801Z,14.41
2022-10-16T01:26:20.382Z,14.37
2022-10-16T01:28:48.435Z,14.37
2022-10-16T01:31:16.227Z,14.39
2022-10-16T01:33:44.245Z,14.40
2022-10-16T01:36:11.956Z,14.43
2022-10-16T01:38:39.518Z,14.48
2022-10-16T01:41:07.097Z,14.52
2022-10-16T01:43:34.871Z,14.56
2022-10-16T01:46:02.844Z,14.57
2022-10-16T01:48:30.405Z,14.59
2022-10-16T01:50:58.356Z,14.60
2022-10-16T01:53:26.973Z,14.60
2022-10-16T01:55:54.623Z,14.60
2022-10-16T01:58:22.609Z,14.59
2022-10-16T02:00:50.262Z,14.60
2022-10-16T02:03:17.890Z,14.60
2022-10-16T02:05:45.496Z,14.59
2022-10-16T02:08:13.304Z,14.58
2022-10-16T02:10:41.236Z,14.57
2022-10-16T02:13:09.176Z,14.58
2022-10-16T02:15:36.743Z,14.56
2022-10-16T02:18:04.293Z,14.58
2022-10-16T02:20:32.001Z,14.60
2022-10-16T02:22:59.937Z,14.60
2022-10-16T02:25:27.501Z,14.58
2022-10-16T02:27:55.101Z,14.58
2022-10-16T02:30:22.646Z,14.59
2022-10-16T02:32:50.272Z,14.58
2022-10-16T02:35:18.661Z,14.57
2022-10-16T02:37:46.199Z,14.56
2022-10-16T02:40:13.783Z,14.53
2022-10-16T02:42:41.516Z,14.53
2022-10-16T02:45:09.292Z,14.52
2022-10-16T02:47:37.064Z,14.53
2022-10-16T02:50:04.677Z,14.54
2022-10-16T02:52:32.529Z,14.55
2022-10-16T02:55:00.069Z,14.55
2022-10-16T02:57:29.407Z,14.56
2022-10-16T02:59:57.389Z,14.57
2022-10-16T03:02:24.936Z,14.57
2022-10-16T03:04:52.548Z,14.58
2022-10-16T03:07:20.396Z,14.61
2022-10-16T03:09:48.175Z,14.63
2022-10-16T03:12:16.097Z,14.63
2022-10-16T03:14:43.659Z,14.65
2022-10-16T03:17:11.221Z,14.66
2022-10-16T03:19:38.844Z,14.67
2022-10-16T03:22:06.417Z,14.67
2022-10-16T03:24:34.425Z,14.68
2022-10-16T03:27:02.001Z,14.69
2022-10-16T03:29:30.507Z,14.71
2022-10-16T03:31:58.044Z,14.71
2022-10-16T03:34:25.824Z,14.71
2022-10-16T03:36:53.859Z,14.71
2022-10-16T03:39:21.411Z,14.71
2022-10-16T03:41:48.990Z,14.70
2022-10-16T03:44:16.541Z,14.68
2022-10-16T03:46:44.350Z,14.70
2022-10-16T03:49:12.288Z,14.70
2022-10-16T03:51:39.894Z,14.69
2022-10-16T03:54:07.454Z,14.68
2022-10-16T03:56:35.278Z,14.67
2022-10-16T03:59:03.194Z,14.69
2022-10-16T04:01:31.562Z,14.68
2022-10-16T04:03:59.174Z,14.70
2022-10-16T04:06:26.753Z,14.70
2022-10-16T04:08:54.318Z,14.72
2022-10-16T04:11:22.145Z,14.72
2022-10-16T04:13:49.765Z,14.71
2022-10-16T04:16:17.302Z,14.71
2022-10-16T04:18:44.913Z,14.72
2022-10-16T04:21:12.498Z,14.70
2022-10-16T04:23:42.037Z,14.69
2022-10-16T04:26:10.006Z,14.68
2022-10-16T04:28:37.651Z,14.67
2022-10-16T04:31:05.222Z,14.67
2022-10-16T04:33:32.813Z,14.68
2022-10-16T04:36:00.585Z,14.67
2022-10-16T04:38:28.505Z,14.65
2022-10-16T04:40:56.152Z,14.64
2022-10-16T04:43:23.765Z,14.63
2022-10-16T04:45:52.181Z,14.61
2022-10-16T04:48:19.843Z,14.58
2022-10-16T04:50:51.671Z,14.61
2022-10-16T04:53:22.695Z,14.62
2022-10-16T04:55:50.314Z,14.61
2022-10-16T04:58:17.872Z,14.59
2022-10-16T05:00:45.645Z,14.60
2022-10-16T05:03:13.707Z,14.60
2022-10-16T05:05:41.836Z,14.62
2022-10-16T05:08:09.422Z,14.61
2022-10-16T05:10:36.953Z,14.63
2022-10-16T05:13:04.513Z,14.64
2022-10-16T05:15:32.521Z,14.64
2022-10-16T05:18:00.095Z,14.64
2022-10-16T05:20:27.638Z,14.65
2022-10-16T05:22:55.254Z,14.63
2022-10-16T05:25:23.031Z,14.62
2022-10-16T05:27:51.369Z,14.62
2022-10-16T05:30:18.972Z,14.60
2022-10-16T05:32:46.550Z,14.59
2022-10-16T05:35:14.146Z,14.57
2022-10-16T05:37:41.936Z,14.58
2022-10-16T05:40:09.880Z,14.57
2022-10-16T05:42:38.261Z,14.56
2022-10-16T05:45:05.855Z,14.55
2022-10-16T05:47:33.448Z,14.53
2022-10-16T05:50:01.093Z,14.53
2022-10-16T05:52:28.768Z,14.54
2022-10-16T05:54:56.303Z,14.56
2022-10-16T05:57:24.079Z,14.58
2022-10-16T05:59:51.898Z,14.59
2022-10-16T06:02:19.471Z,14.57
2022-10-16T06:04:47.415Z,14.56
2022-10-16T06:07:15.019Z,14.56
2022-10-16T06:09:42.607Z,14.55
2022-10-16T06:12:10.650Z,14.55
2022-10-16T06:14:38.358Z,14.56
2022-10-16T06:17:06.328Z,14.58
2022-10-16T06:19:33.916Z,14.60
2022-10-16T06:22:03.749Z,14.61
2022-10-16T06:24:31.384Z,14.60
2022-10-16T06:26:58.992Z,14.60
2022-10-16T06:29:26.969Z,14.62
2022-10-16T06:31:54.757Z,14.64
2022-10-16T06:34:22.849Z,14.69
2022-10-16T06:36:50.472Z,14.74
2022-10-16T06:39:18.332Z,14.78
2022-10-16T06:41:45.928Z,14.82
2022-10-16T06:44:13.522Z,14.85
2022-10-16T06:46:41.148Z,14.88
2022-10-16T06:49:08.734Z,14.91
2022-10-16T06:51:40.600Z,14.96
2022-10-16T06:54:10.828Z,15.03
2022-10-16T06:56:38.963Z,15.10
2022-10-16T06:59:06.589Z,15.18
2022-10-16T07:01:34.175Z,15.23
2022-10-16T07:04:01.854Z,15.33
2022-10-16T07:06:29.842Z,15.38
2022-10-16T07:08:57.513Z,15.44
2022-10-16T07:11:25.281Z,15.49
2022-10-16T07:13:56.184Z,15.54
2022-10-16T07:16:24.335Z,15.58
2022-10-16T07:18:55.300Z,15.64
2022-10-16T07:21:23.835Z,15.70
2022-10-16T07:23:51.639Z,15.79
2022-10-16T07:26:19.332Z,15.88
2022-10-16T07:28:47.084Z,15.99
2022-10-16T07:31:15.754Z,16.07
2022-10-16T07:33:45.432Z,16.19
2022-10-16T07:36:16.223Z,16.31
2022-10-16T07:38:44.521Z,16.36
2022-10-16T07:41:12.242Z,16.41
2022-10-16T07:43:40.201Z,16.48
2022-10-16T07:46:07.877Z,16.47
2022-10-16T07:48:35.569Z,16.48
2022-10-16T07:51:03.568Z,16.49
2022-10-16T07:53:31.564Z,16.48
2022-10-16T07:55:59.557Z,16.50
2022-10-16T07:58:27.254Z,16.49
2022-10-16T08:00:55.270Z,16.47
2022-10-16T08:03:23.024Z,16.46
2022-10-16T08:05:51.047Z,16.44
2022-10-16T08:08:19.040Z,16.39
2022-10-16T08:10:46.730Z,16.35
2022-10-16T08:13:16.415Z,16.32
2022-10-16T08:15:44.276Z,16.34
2022-10-16T08:18:11.961Z,16.29
2022-10-16T08:20:39.996Z,16.31
2022-10-16T08:23:08.094Z,16.42
2022-10-16T08:25:35.856Z,16.60
2022-10-16T08:28:03.602Z,16.82
2022-10-16T08:30:31.697Z,17.05
2022-10-16T08:33:00.910Z,17.34
2022-10-16T08:35:28.630Z,17.73
2022-10-16T08:37:56.315Z,18.09
2022-10-16T08:42:53.848Z,18.28
2022-10-16T08:45:22.559Z,18.26
2022-10-16T08:47:50.405Z,18.18
2022-10-16T08:50:18.303Z,18.09
2022-10-16T08:52:46.253Z,18.02
2022-10-16T08:55:14.139Z,17.97
2022-10-16T08:57:41.867Z,17.93
2022-10-16T09:00:09.538Z,17.88
2022-10-16T09:02:37.462Z,17.85
2022-10-16T09:05:05.831Z,17.83
2022-10-16T09:07:36.164Z,17.83
2022-10-16T09:10:04.324Z,17.85
2022-10-16T09:12:32.218Z,17.88
2022-10-16T09:15:00.051Z,17.90
2022-10-16T09:17:28.274Z,17.90
2022-10-16T09:19:56.440Z,17.91
2022-10-16T09:22:24.553Z,17.89
2022-10-16T09:24:53.895Z,17.90
2022-10-16T09:27:21.688Z,17.90
2022-10-16T09:29:49.764Z,17.93
2022-10-16T09:32:17.765Z,18.00
2022-10-16T09:34:46.176Z,18.04
2022-10-16T09:37:14.094Z,18.06
2022-10-16T09:39:42.005Z,18.08
2022-10-16T09:42:09.742Z,18.09
2022-10-16T09:44:37.884Z,18.21
2022-10-16T09:47:06.094Z,18.26
2022-10-16T09:49:34.098Z,18.30
2022-10-16T09:52:02.362Z,18.46
2022-10-16T09:54:30.332Z,18.71
2022-10-16T09:56:58.399Z,18.99
2022-10-16T09:59:28.289Z,19.55
2022-10-16T10:01:56.461Z,20.15
2022-10-16T10:04:24.419Z,20.46
2022-10-16T10:06:52.320Z,20.54
2022-10-16T10:09:20.452Z,20.66
2022-10-16T10:11:48.583Z,20.79
2022-10-16T10:14:16.893Z,20.77
2022-10-16T10:16:45.053Z,20.59
2022-10-16T10:19:13.091Z,20.46
2022-10-16T10:21:41.129Z,20.45
2022-10-16T10:24:09.594Z,20.45
2022-10-16T10:26:40.493Z,20.54
2022-10-16T10:29:10.489Z,20.72
2022-10-16T10:31:38.339Z,20.98
2022-10-16T10:34:06.166Z,21.34
2022-10-16T10:36:34.868Z,21.87
2022-10-16T10:39:03.883Z,22.54
2022-10-16T10:41:32.035Z,22.86
2022-10-16T10:43:59.954Z,22.76
2022-10-16T10:46:27.853Z,22.64
2022-10-16T10:48:55.986Z,22.56
2022-10-16T10:51:23.741Z,22.37
2022-10-16T10:53:51.621Z,22.11
2022-10-16T10:56:19.496Z,21.90
2022-10-16T10:58:48.777Z,21.60
2022-10-16T11:01:17.234Z,21.29
2022-10-16T11:03:45.028Z,21.08
2022-10-16T11:06:12.906Z,20.92
2022-10-16T11:08:40.779Z,20.87
2022-10-16T11:11:09.322Z,20.87
2022-10-16T11:13:37.907Z,20.88
2022-10-16T11:16:05.866Z,20.95
2022-10-16T11:18:34.012Z,21.04
2022-10-16T11:21:02.243Z,21.06
2022-10-16T11:23:30.390Z,21.04
2022-10-16T11:25:58.550Z,21.30
2022-10-16T11:28:29.364Z,21.75
2022-10-16T11:30:59.456Z,22.16
2022-10-16T11:33:27.390Z,22.23
2022-10-16T11:35:55.566Z,22.26
2022-10-16T11:38:23.850Z,22.29
2022-10-16T11:40:51.759Z,22.31
2022-10-16T11:43:19.745Z,22.23
2022-10-16T11:45:47.531Z,22.18
2022-10-16T11:48:15.357Z,22.14
2022-10-16T11:50:43.302Z,22.20
2022-10-16T11:53:11.663Z,22.41
2022-10-16T11:55:41.885Z,22.63
2022-10-16T11:58:12.676Z,22.79
2022-10-16T12:00:40.692Z,23.08
2022-10-16T12:03:09.774Z,23.57
2022-10-16T12:05:37.652Z,23.74
2022-10-16T12:08:05.532Z,23.70
2022-10-16T12:13:07.675Z,23.28
2022-10-16T12:18:23.918Z,22.95
2022-10-16T12:20:51.797Z,23.02
2022-10-16T12:23:20.946Z,23.14
2022-10-16T12:25:49.226Z,23.23
2022-10-16T12:28:17.781Z,23.30
2022-10-16T12:30:46.467Z,23.39
2022-10-16T12:33:16.210Z,23.38
2022-10-16T12:35:44.040Z,23.33
2022-10-16T12:38:12.623Z,23.26
2022-10-16T12:40:40.714Z,23.11
2022-10-16T12:43:08.607Z,22.99
2022-10-16T12:45:36.689Z,22.95
2022-10-16T12:48:05.157Z,22.94
2022-10-16T12:50:33.804Z,22.91
2022-10-16T12:53:01.670Z,22.89
2022-10-16T12:55:29.757Z,22.68
2022-10-16T12:57:57.810Z,22.69
2022-10-16T13:00:26.607Z,22.83
2022-10-16T13:02:55.332Z,23.05
2022-10-16T13:05:23.639Z,23.28
2022-10-16T13:07:51.431Z,23.35
2022-10-16T13:10:19.341Z,23.38
2022-10-16T13:12:47.427Z,23.47
2022-10-16T13:15:15.571Z,23.35
2022-10-16T13:17:43.462Z,23.34
2022-10-16T13:20:11.252Z,23.13
2022-10-16T13:22:39.030Z,22.87
2022-10-16T13:25:10.183Z,22.68
2022-10-16T13:27:41.567Z,22.67
2022-10-16T13:30:09.575Z,22.69
2022-10-16T13:32:37.544Z,22.86
2022-10-16T13:35:05.404Z,22.88
2022-10-16T13:37:33.535Z,22.79
2022-10-16T13:40:01.764Z,22.49
2022-10-16T13:42:29.614Z,22.11
2022-10-16T13:44:57.672Z,21.83
2022-10-16T13:47:25.795Z,21.59
2022-10-16T13:49:55.281Z,21.31
2022-10-16T13:52:23.938Z,21.15
2022-10-16T13:54:51.785Z,21.25
2022-10-16T13:57:27.740Z,21.55
2022-10-16T13:59:55.936Z,21.92
2022-10-16T14:02:24.286Z,22.25
2022-10-16T14:04:52.410Z,22.66
2022-10-16T14:07:21.556Z,23.02
2022-10-16T14:09:49.797Z,23.15
2022-10-16T14:12:18.090Z,23.31
2022-10-16T14:14:46.342Z,23.41
2022-10-16T14:17:14.259Z,23.45
2022-10-16T14:19:42.254Z,23.33
2022-10-16T14:22:10.045Z,23.24
2022-10-16T14:24:38.082Z,23.15
2022-10-16T14:27:06.436Z,22.92
2022-10-16T14:29:34.352Z,22.63
2022-10-16T14:32:02.565Z,22.35
2022-10-16T14:34:31.616Z,22.15
2022-10-16T14:36:59.982Z,21.98
2022-10-16T14:39:28.297Z,21.85
2022-10-16T14:41:56.133Z,21.71
2022-10-16T14:44:24.805Z,21.53
2022-10-16T14:46:52.723Z,21.38
2022-10-16T14:49:21.161Z,21.17
2022-10-16T14:51:49.545Z,20.95
2022-10-16T14:54:17.991Z,20.77
2022-10-16T14:56:45.669Z,20.84
2022-10-16T14:59:13.670Z,20.85
2022-10-16T15:01:41.493Z,20.78
2022-10-16T15:04:09.757Z,20.69
2022-10-16T15:06:37.583Z,20.60
2022-10-16T15:09:05.452Z,20.47
2022-10-16T15:11:33.285Z,20.34
2022-10-16T15:14:01.313Z,20.21
2022-10-16T15:16:29.553Z,20.10
2022-10-16T15:18:57.396Z,20.02
2022-10-16T15:21:25.359Z,19.95
2022-10-16T15:23:53.227Z,19.84
2022-10-16T15:26:21.252Z,19.73
2022-10-16T15:28:49.903Z,19.64
2022-10-16T15:31:17.892Z,19.52
2022-10-16T15:33:48.961Z,19.44
2022-10-16T15:36:17.281Z,19.37
2022-10-16T15:38:46.672Z,19.29
2022-10-16T15:41:14.879Z,19.22
2022-10-16T15:43:42.719Z,19.17
2022-10-16T15:46:10.737Z,19.09
2022-10-16T15:48:38.602Z,19.02
2022-10-16T15:51:06.582Z,18.96
2022-10-16T15:53:35.531Z,18.89
2022-10-16T15:56:03.294Z,18.80
2022-10-16T15:58:31.887Z,18.73
2022-10-16T16:01:01.956Z,18.67
2022-10-16T16:03:29.892Z,18.61
2022-10-16T16:05:58.352Z,18.56
2022-10-16T16:08:26.142Z,18.53
2022-10-16T16:10:54.679Z,18.48
2022-10-16T16:13:22.599Z,18.45
2022-10-16T16:15:50.666Z,18.41
2022-10-16T16:18:19.017Z,18.37
2022-10-16T16:20:47.276Z,18.32
2022-10-16T16:23:15.194Z,18.28
2022-10-16T16:25:43.018Z,18.22
2022-10-16T16:28:15.444Z,18.17
2022-10-16T16:30:43.513Z,18.11
2022-10-16T16:33:11.431Z,18.07
2022-10-16T16:35:39.317Z,18.02
2022-10-16T16:38:07.565Z,17.96
2022-10-16T16:40:36.086Z,17.95
2022-10-16T16:43:05.932Z,17.92
2022-10-16T16:45:33.698Z,17.90
2022-10-16T16:48:01.460Z,17.87
2022-10-16T16:50:29.495Z,17.83
2022-10-16T16:52:57.417Z,17.82
2022-10-16T16:55:25.912Z,17.77
2022-10-16T16:57:53.870Z,17.75
2022-10-16T17:00:21.839Z,17.73
2022-10-16T17:02:50.152Z,17.72
2022-10-16T17:05:18.458Z,17.69
2022-10-16T17:07:46.532Z,17.68
2022-10-16T17:10:14.415Z,17.66
2022-10-16T17:12:42.255Z,17.64
2022-10-16T17:15:10.082Z,17.64
2022-10-16T17:17:38.215Z,17.63
2022-10-16T17:20:06.547Z,17.61
2022-10-16T17:22:34.341Z,17.60
2022-10-16T17:25:04.598Z,17.59
2022-10-16T17:27:32.567Z,17.58
2022-10-16T17:30:00.809Z,17.57
2022-10-16T17:32:29.300Z,17.54
2022-10-16T17:34:57.697Z,17.53
2022-10-16T17:37:25.581Z,17.51
2022-10-16T17:39:53.499Z,17.47
2022-10-16T17:42:21.902Z,17.45
2022-10-16T17:44:49.900Z,17.42
2022-10-16T17:47:17.668Z,17.38
2022-10-16T17:49:45.740Z,17.36
2022-10-16T17:52:14.456Z,17.31
2022-10-16T17:54:42.304Z,17.27
2022-10-16T17:57:10.620Z,17.25
2022-10-16T17:59:38.488Z,17.23
2022-10-16T18:02:06.518Z,17.21
2022-10-16T18:04:34.526Z,17.22
2022-10-16T18:07:04.565Z,17.20
2022-10-16T18:09:33.030Z,17.20
2022-10-16T18:12:01.483Z,17.18
2022-10-16T18:14:29.717Z,17.18
2022-10-16T18:16:57.591Z,17.15
2022-10-16T18:19:25.915Z,17.12
2022-10-16T18:21:56.040Z,17.09
2022-10-16T18:24:25.028Z,17.09
2022-10-16T18:26:56.619Z,17.07
2022-10-16T18:29:24.510Z,17.07
2022-10-16T18:31:52.464Z,17.05
2022-10-16T18:34:20.934Z,17.03
2022-10-16T18:36:51.378Z,17.00
2022-10-16T18:39:23.993Z,17.00
2022-10-16T18:41:55.537Z,16.98
2022-10-16T18:44:24.284Z,16.97
2022-10-16T18:46:57.541Z,16.95
2022-10-16T18:49:26.556Z,16.94
2022-10-16T18:51:56.970Z,16.92
2022-10-16T18:54:25.291Z,16.93
2022-10-16T18:56:53.277Z,16.92
2022-10-16T18:59:21.117Z,16.92
2022-10-16T19:01:49.292Z,16.90
2022-10-16T19:04:17.044Z,16.87
2022-10-16T19:06:45.247Z,16.86
2022-10-16T19:09:13.517Z,16.84
2022-10-16T19:11:41.980Z,16.82
2022-10-16T19:14:10.055Z,16.79
2022-10-16T19:16:38.417Z,16.78
2022-10-16T19:19:06.743Z,16.79
2022-10-16T19:21:34.604Z,16.79
2022-10-16T19:24:02.523Z,16.80
2022-10-16T19:26:30.489Z,16.81
2022-10-16T19:28:59.031Z,16.83
2022-10-16T19:31:29.068Z,16.82
2022-10-16T19:33:56.944Z,16.83
2022-10-16T19:36:24.845Z,16.84
2022-10-16T19:38:52.623Z,16.84
2022-10-16T19:41:20.509Z,16.85
2022-10-16T19:43:48.734Z,16.85
2022-10-16T19:46:16.690Z,16.84
2022-10-16T19:48:44.599Z,16.84
2022-10-16T19:51:12.535Z,16.81
2022-10-16T19:53:40.978Z,16.79
2022-10-16T19:56:09.472Z,16.77
2022-10-16T19:58:37.331Z,16.73
2022-10-16T20:01:05.338Z,16.68
2022-10-16T20:03:33.150Z,16.64
2022-10-16T20:06:06.489Z,16.60
2022-10-16T20:08:35.195Z,16.57
2022-10-16T20:11:03.123Z,16.55
2022-10-16T20:13:31.002Z,16.53
2022-10-16T20:15:58.924Z,16.51
2022-10-16T20:18:26.784Z,16.49
2022-10-16T20:20:55.984Z,16.47
2022-10-16T20:23:24.281Z,16.46
2022-10-16T20:25:52.947Z,16.44
2022-10-16T20:28:20.788Z,16.41
2022-10-16T20:30:48.581Z,16.35
2022-10-16T20:33:16.940Z,16.28
2022-10-16T20:35:45.290Z,16.22
2022-10-16T20:38:13.150Z,16.15
2022-10-16T20:40:41.026Z,16.07
2022-10-16T20:43:08.966Z,16.01
2022-10-16T20:45:37.704Z,15.92
2022-10-16T20:48:05.496Z,15.87
2022-10-16T20:50:33.297Z,15.84
2022-10-16T20:53:01.137Z,15.80
2022-10-16T20:55:28.997Z,15.74
2022-10-16T20:57:58.738Z,15.68
2022-10-16T21:00:26.660Z,15.63
2022-10-16T21:02:54.356Z,15.57
2022-10-16T21:05:22.147Z,15.55
2022-10-16T21:07:49.875Z,15.51
2022-10-16T21:10:19.599Z,15.48
2022-10-16T21:12:47.423Z,15.47
2022-10-16T21:15:15.780Z,15.42
2022-10-16T21:17:43.779Z,15.39
2022-10-16T21:20:11.647Z,15.36
2022-10-16T21:22:40.248Z,15.33
2022-10-16T21:25:08.091Z,15.32
2022-10-16T21:27:35.921Z,15.31
2022-10-16T21:30:03.901Z,15.29
2022-10-16T21:32:31.896Z,15.28
2022-10-16T21:34:59.884Z,15.28
2022-10-16T21:37:27.608Z,15.28
2022-10-16T21:39:55.420Z,15.26
2022-10-16T21:42:23.339Z,15.25
2022-10-16T21:44:51.087Z,15.23
2022-10-16T21:47:19.834Z,15.20
2022-10-16T21:49:47.558Z,15.18
2022-10-16T21:52:15.189Z,15.13
2022-10-16T21:54:42.911Z,15.13
2022-10-16T21:57:10.735Z,15.10
2022-10-16T21:59:39.090Z,15.08
2022-10-16T22:02:07.256Z,15.06
2022-10-16T22:04:34.941Z,15.04
2022-10-16T22:07:02.655Z,15.02
2022-10-16T22:09:30.356Z,15.02
2022-10-16T22:11:58.552Z,15.00
2022-10-16T22:14:26.263Z,14.98
2022-10-16T22:16:53.944Z,14.96
2022-10-16T22:19:21.660Z,14.91
2022-10-16T22:21:49.295Z,14.89
2022-10-16T22:24:19.232Z,14.85
2022-10-16T22:26:47.128Z,14.82
2022-10-16T22:29:14.803Z,14.81
2022-10-16T22:31:42.504Z,14.78
2022-10-16T22:34:10.257Z,14.76
2022-10-16T22:36:38.544Z,14.73
2022-10-16T22:39:06.305Z,14.71
2022-10-16T22:41:33.987Z,14.69
2022-10-16T22:44:01.580Z,14.69
2022-10-16T22:46:29.230Z,14.68
2022-10-16T22:48:57.453Z,14.69
2022-10-16T22:51:25.139Z,14.71
2022-10-16T22:53:52.896Z,14.72
2022-10-16T22:56:20.545Z,14.71
2022-10-16T22:58:48.223Z,14.70
2022-10-16T23:01:16.410Z,14.67
2022-10-16T23:03:44.080Z,14.65
2022-10-16T23:06:12.083Z,14.63
2022-10-16T23:08:39.699Z,14.61
2022-10-16T23:11:07.368Z,14.58
2022-10-16T23:13:35.346Z,14.58
2022-10-16T23:16:02.963Z,14.56
2022-10-16T23:18:30.634Z,14.55
2022-10-16T23:20:58.250Z,14.53
2022-10-16T23:23:25.879Z,14.52
2022-10-16T23:25:53.773Z,14.52
2022-10-16T23:28:21.884Z,14.51
2022-10-16T23:30:49.540Z,14.52
2022-10-16T23:33:17.243Z,14.51
2022-10-16T23:35:44.831Z,14.51
2022-10-16T23:38:12.726Z,14.50
2022-10-16T23:40:40.423Z,14.49
2022-10-16T23:43:07.986Z,14.48
2022-10-16T23:45:35.550Z,14.47
2022-10-16T23:48:03.180Z,14.48
2022-10-16T23:50:31.956Z,14.48
2022-10-16T23:52:59.579Z,14.49
2022-10-16T23:55:27.228Z,14.52
2022-10-16T23:57:54.878Z,14.54
